sensor_id;sensor_type;location;lat;lon;timestamp;P1;durP1;ratioP1;P2;durP2;ratioP2
65896;SDS011;52677;50.898;10.854;2024-03-02T00:01:39;28.98;;;15.15;;
65896;SDS011;52677;50.898;10.854;2024-03-02T00:03:39;27.73;;;13.70;;
65896;SDS011;52677;50.898;10.854;2024-03-02T00:05:40;28.30;;;13.75;;
65896;SDS011;52677;50.898;10.854;2024-03-02T00:07:41;28.70;;;13.85;;
65896;SDS011;52677;50.898;10.854;2024-03-02T00:09:43;24.10;;;13.43;;
65896;SDS011;52677;50.898;10.854;2024-03-02T00:11:44;24.23;;;12.60;;
65896;SDS011;52677;50.898;10.854;2024-03-02T00:13:45;25.13;;;13.73;;
65896;SDS011;52677;50.898;10.854;2024-03-02T00:15:46;23.42;;;13.05;;
65896;SDS011;52677;50.898;10.854;2024-03-02T00:17:52;25.58;;;13.52;;
65896;SDS011;52677;50.898;10.854;2024-03-02T00:19:53;23.00;;;12.95;;
65896;SDS011;52677;50.898;10.854;2024-03-02T00:21:53;22.63;;;12.93;;
65896;SDS011;52677;50.898;10.854;2024-03-02T00:23:54;25.25;;;13.00;;
65896;SDS011;52677;50.898;10.854;2024-03-02T00:25:55;27.45;;;14.93;;
65896;SDS011;52677;50.898;10.854;2024-03-02T00:27:55;27.15;;;14.88;;
65896;SDS011;52677;50.898;10.854;2024-03-02T00:29:56;27.67;;;15.15;;
65896;SDS011;52677;50.898;10.854;2024-03-02T00:31:57;25.98;;;14.45;;
65896;SDS011;52677;50.898;10.854;2024-03-02T00:33:58;27.77;;;14.70;;
65896;SDS011;52677;50.898;10.854;2024-03-02T00:36:05;27.17;;;14.55;;
65896;SDS011;52677;50.898;10.854;2024-03-02T00:38:06;29.23;;;14.27;;
65896;SDS011;52677;50.898;10.854;2024-03-02T00:40:07;28.42;;;15.82;;
65896;SDS011;52677;50.898;10.854;2024-03-02T00:42:08;27.40;;;15.45;;
65896;SDS011;52677;50.898;10.854;2024-03-02T00:44:15;29.67;;;15.63;;
65896;SDS011;52677;50.898;10.854;2024-03-02T00:46:18;28.58;;;14.60;;
65896;SDS011;52677;50.898;10.854;2024-03-02T00:48:19;30.23;;;14.18;;
65896;SDS011;52677;50.898;10.854;2024-03-02T00:50:20;30.92;;;15.60;;
65896;SDS011;52677;50.898;10.854;2024-03-02T00:52:20;24.45;;;14.05;;
65896;SDS011;52677;50.898;10.854;2024-03-02T00:54:21;26.15;;;14.00;;
65896;SDS011;52677;50.898;10.854;2024-03-02T00:56:24;27.80;;;14.68;;
65896;SDS011;52677;50.898;10.854;2024-03-02T00:58:25;27.95;;;13.65;;
65896;SDS011;52677;50.898;10.854;2024-03-02T01:00:25;28.00;;;15.60;;
65896;SDS011;52677;50.898;10.854;2024-03-02T01:02:26;28.60;;;14.27;;
65896;SDS011;52677;50.898;10.854;2024-03-02T01:04:26;22.50;;;13.65;;
65896;SDS011;52677;50.898;10.854;2024-03-02T01:06:27;25.17;;;14.00;;
65896;SDS011;52677;50.898;10.854;2024-03-02T01:08:27;27.90;;;13.98;;
65896;SDS011;52677;50.898;10.854;2024-03-02T01:10:28;27.70;;;15.75;;
65896;SDS011;52677;50.898;10.854;2024-03-02T01:12:28;26.98;;;14.10;;
65896;SDS011;52677;50.898;10.854;2024-03-02T01:14:28;25.30;;;13.48;;
65896;SDS011;52677;50.898;10.854;2024-03-02T01:16:29;27.75;;;14.40;;
65896;SDS011;52677;50.898;10.854;2024-03-02T01:18:29;26.65;;;12.85;;
65896;SDS011;52677;50.898;10.854;2024-03-02T01:20:30;25.02;;;13.80;;
65896;SDS011;52677;50.898;10.854;2024-03-02T01:22:31;26.27;;;13.73;;
65896;SDS011;52677;50.898;10.854;2024-03-02T01:24:31;25.10;;;14.30;;
65896;SDS011;52677;50.898;10.854;2024-03-02T01:26:32;27.90;;;13.88;;
65896;SDS011;52677;50.898;10.854;2024-03-02T01:28:32;25.38;;;13.45;;
65896;SDS011;52677;50.898;10.854;2024-03-02T01:30:33;26.08;;;14.77;;
65896;SDS011;52677;50.898;10.854;2024-03-02T01:32:33;24.70;;;14.85;;
65896;SDS011;52677;50.898;10.854;2024-03-02T01:34:33;27.45;;;14.65;;
65896;SDS011;52677;50.898;10.854;2024-03-02T01:36:34;27.02;;;13.85;;
65896;SDS011;52677;50.898;10.854;2024-03-02T01:38:34;27.10;;;14.27;;
65896;SDS011;52677;50.898;10.854;2024-03-02T01:40:35;25.83;;;14.43;;
65896;SDS011;52677;50.898;10.854;2024-03-02T01:42:36;32.15;;;14.65;;
65896;SDS011;52677;50.898;10.854;2024-03-02T01:44:37;24.83;;;14.27;;
65896;SDS011;52677;50.898;10.854;2024-03-02T01:46:37;26.20;;;14.07;;
65896;SDS011;52677;50.898;10.854;2024-03-02T01:48:38;25.80;;;14.27;;
65896;SDS011;52677;50.898;10.854;2024-03-02T01:50:38;30.33;;;15.43;;
65896;SDS011;52677;50.898;10.854;2024-03-02T01:52:39;29.92;;;14.23;;
65896;SDS011;52677;50.898;10.854;2024-03-02T01:54:39;30.92;;;15.45;;
65896;SDS011;52677;50.898;10.854;2024-03-02T01:56:40;26.08;;;14.80;;
65896;SDS011;52677;50.898;10.854;2024-03-02T01:58:40;25.60;;;14.38;;
65896;SDS011;52677;50.898;10.854;2024-03-02T02:00:41;29.02;;;14.55;;
65896;SDS011;52677;50.898;10.854;2024-03-02T02:02:41;26.67;;;14.25;;
65896;SDS011;52677;50.898;10.854;2024-03-02T02:04:42;29.13;;;15.55;;
65896;SDS011;52677;50.898;10.854;2024-03-02T02:06:45;23.30;;;13.02;;
65896;SDS011;52677;50.898;10.854;2024-03-02T02:08:46;24.33;;;14.45;;
65896;SDS011;52677;50.898;10.854;2024-03-02T02:10:47;26.05;;;14.15;;
65896;SDS011;52677;50.898;10.854;2024-03-02T02:12:47;29.02;;;15.32;;
65896;SDS011;52677;50.898;10.854;2024-03-02T02:14:48;29.38;;;13.85;;
65896;SDS011;52677;50.898;10.854;2024-03-02T02:16:50;31.88;;;14.70;;
65896;SDS011;52677;50.898;10.854;2024-03-02T02:18:50;25.33;;;14.23;;
65896;SDS011;52677;50.898;10.854;2024-03-02T02:20:51;28.92;;;14.85;;
65896;SDS011;52677;50.898;10.854;2024-03-02T02:23:01;25.98;;;14.20;;
65896;SDS011;52677;50.898;10.854;2024-03-02T02:25:03;28.88;;;14.95;;
65896;SDS011;52677;50.898;10.854;2024-03-02T02:27:04;27.30;;;14.27;;
65896;SDS011;52677;50.898;10.854;2024-03-02T02:29:04;28.02;;;13.90;;
65896;SDS011;52677;50.898;10.854;2024-03-02T02:31:05;25.88;;;13.18;;
65896;SDS011;52677;50.898;10.854;2024-03-02T02:33:05;28.13;;;13.60;;
65896;SDS011;52677;50.898;10.854;2024-03-02T02:35:05;24.83;;;13.50;;
65896;SDS011;52677;50.898;10.854;2024-03-02T02:37:06;26.40;;;13.82;;
65896;SDS011;52677;50.898;10.854;2024-03-02T02:39:07;22.00;;;13.23;;
65896;SDS011;52677;50.898;10.854;2024-03-02T02:41:10;29.15;;;14.65;;
65896;SDS011;52677;50.898;10.854;2024-03-02T02:43:11;29.27;;;14.30;;
65896;SDS011;52677;50.898;10.854;2024-03-02T02:45:12;26.25;;;14.32;;
65896;SDS011;52677;50.898;10.854;2024-03-02T02:47:14;27.88;;;14.00;;
65896;SDS011;52677;50.898;10.854;2024-03-02T02:49:14;26.90;;;14.07;;
65896;SDS011;52677;50.898;10.854;2024-03-02T02:51:15;23.23;;;13.82;;
65896;SDS011;52677;50.898;10.854;2024-03-02T02:53:16;25.45;;;14.20;;
65896;SDS011;52677;50.898;10.854;2024-03-02T02:55:17;32.22;;;15.43;;
65896;SDS011;52677;50.898;10.854;2024-03-02T02:57:17;28.13;;;15.05;;
65896;SDS011;52677;50.898;10.854;2024-03-02T02:59:17;27.25;;;14.00;;
65896;SDS011;52677;50.898;10.854;2024-03-02T03:01:18;29.15;;;14.93;;
65896;SDS011;52677;50.898;10.854;2024-03-02T03:03:19;31.08;;;14.88;;
65896;SDS011;52677;50.898;10.854;2024-03-02T03:05:19;28.88;;;15.43;;
65896;SDS011;52677;50.898;10.854;2024-03-02T03:07:19;25.00;;;14.05;;
65896;SDS011;52677;50.898;10.854;2024-03-02T03:09:20;28.77;;;14.68;;
65896;SDS011;52677;50.898;10.854;2024-03-02T03:11:20;27.95;;;14.65;;
65896;SDS011;52677;50.898;10.854;2024-03-02T03:13:22;30.83;;;15.35;;
65896;SDS011;52677;50.898;10.854;2024-03-02T03:15:23;29.10;;;14.93;;
65896;SDS011;52677;50.898;10.854;2024-03-02T03:17:23;27.40;;;14.85;;
65896;SDS011;52677;50.898;10.854;2024-03-02T03:19:24;34.58;;;15.07;;
65896;SDS011;52677;50.898;10.854;2024-03-02T03:21:24;25.90;;;14.05;;
65896;SDS011;52677;50.898;10.854;2024-03-02T03:23:24;26.40;;;13.43;;
65896;SDS011;52677;50.898;10.854;2024-03-02T03:25:25;27.33;;;14.38;;
65896;SDS011;52677;50.898;10.854;2024-03-02T03:27:26;29.02;;;14.65;;
65896;SDS011;52677;50.898;10.854;2024-03-02T03:29:26;28.10;;;15.88;;
65896;SDS011;52677;50.898;10.854;2024-03-02T03:31:26;27.58;;;14.55;;
65896;SDS011;52677;50.898;10.854;2024-03-02T03:33:27;26.25;;;14.82;;
65896;SDS011;52677;50.898;10.854;2024-03-02T03:35:27;28.60;;;14.80;;
65896;SDS011;52677;50.898;10.854;2024-03-02T03:37:28;29.15;;;15.38;;
65896;SDS011;52677;50.898;10.854;2024-03-02T03:39:33;32.75;;;16.08;;
65896;SDS011;52677;50.898;10.854;2024-03-02T03:41:35;29.25;;;14.45;;
65896;SDS011;52677;50.898;10.854;2024-03-02T03:43:36;31.33;;;16.05;;
65896;SDS011;52677;50.898;10.854;2024-03-02T03:45:36;28.30;;;14.48;;
65896;SDS011;52677;50.898;10.854;2024-03-02T03:47:36;28.60;;;15.15;;
65896;SDS011;52677;50.898;10.854;2024-03-02T03:49:36;28.90;;;14.80;;
65896;SDS011;52677;50.898;10.854;2024-03-02T03:51:37;31.67;;;14.90;;
65896;SDS011;52677;50.898;10.854;2024-03-02T03:53:37;26.77;;;14.13;;
65896;SDS011;52677;50.898;10.854;2024-03-02T03:55:38;26.63;;;13.85;;
65896;SDS011;52677;50.898;10.854;2024-03-02T03:57:38;28.08;;;14.20;;
65896;SDS011;52677;50.898;10.854;2024-03-02T03:59:38;29.10;;;14.23;;
65896;SDS011;52677;50.898;10.854;2024-03-02T04:01:38;28.27;;;13.57;;
65896;SDS011;52677;50.898;10.854;2024-03-02T04:03:39;30.35;;;13.85;;
65896;SDS011;52677;50.898;10.854;2024-03-02T04:05:39;29.98;;;13.57;;
65896;SDS011;52677;50.898;10.854;2024-03-02T04:07:40;26.52;;;12.80;;
65896;SDS011;52677;50.898;10.854;2024-03-02T04:09:40;30.33;;;14.30;;
65896;SDS011;52677;50.898;10.854;2024-03-02T04:11:40;28.33;;;13.60;;
65896;SDS011;52677;50.898;10.854;2024-03-02T04:13:41;27.20;;;13.30;;
65896;SDS011;52677;50.898;10.854;2024-03-02T04:15:41;30.27;;;14.68;;
65896;SDS011;52677;50.898;10.854;2024-03-02T04:17:41;28.38;;;13.48;;
65896;SDS011;52677;50.898;10.854;2024-03-02T04:19:42;29.25;;;12.50;;
65896;SDS011;52677;50.898;10.854;2024-03-02T04:21:42;26.40;;;13.32;;
65896;SDS011;52677;50.898;10.854;2024-03-02T04:23:42;25.48;;;13.30;;
65896;SDS011;52677;50.898;10.854;2024-03-02T04:25:43;22.58;;;13.05;;
65896;SDS011;52677;50.898;10.854;2024-03-02T04:27:43;26.92;;;14.40;;
65896;SDS011;52677;50.898;10.854;2024-03-02T04:29:44;23.15;;;12.52;;
65896;SDS011;52677;50.898;10.854;2024-03-02T04:31:44;24.08;;;12.85;;
65896;SDS011;52677;50.898;10.854;2024-03-02T04:33:45;24.48;;;12.65;;
65896;SDS011;52677;50.898;10.854;2024-03-02T04:35:45;22.20;;;12.70;;
65896;SDS011;52677;50.898;10.854;2024-03-02T04:37:46;26.85;;;12.27;;
65896;SDS011;52677;50.898;10.854;2024-03-02T04:39:46;24.77;;;13.07;;
65896;SDS011;52677;50.898;10.854;2024-03-02T04:41:47;25.60;;;13.77;;
65896;SDS011;52677;50.898;10.854;2024-03-02T04:43:47;25.40;;;13.43;;
65896;SDS011;52677;50.898;10.854;2024-03-02T04:45:48;31.23;;;14.60;;
65896;SDS011;52677;50.898;10.854;2024-03-02T04:47:48;26.27;;;13.15;;
65896;SDS011;52677;50.898;10.854;2024-03-02T04:49:48;27.83;;;14.38;;
65896;SDS011;52677;50.898;10.854;2024-03-02T04:51:49;27.55;;;15.15;;
65896;SDS011;52677;50.898;10.854;2024-03-02T04:53:49;29.63;;;14.70;;
65896;SDS011;52677;50.898;10.854;2024-03-02T04:55:49;28.75;;;13.93;;
65896;SDS011;52677;50.898;10.854;2024-03-02T04:57:56;25.15;;;13.30;;
65896;SDS011;52677;50.898;10.854;2024-03-02T04:59:56;28.23;;;14.10;;
65896;SDS011;52677;50.898;10.854;2024-03-02T05:01:56;24.50;;;14.13;;
65896;SDS011;52677;50.898;10.854;2024-03-02T05:03:57;26.55;;;13.80;;
65896;SDS011;52677;50.898;10.854;2024-03-02T05:05:58;23.60;;;13.63;;
65896;SDS011;52677;50.898;10.854;2024-03-02T05:07:58;24.60;;;12.95;;
65896;SDS011;52677;50.898;10.854;2024-03-02T05:09:58;24.27;;;13.05;;
65896;SDS011;52677;50.898;10.854;2024-03-02T05:11:59;30.73;;;13.15;;
65896;SDS011;52677;50.898;10.854;2024-03-02T05:14:29;25.27;;;12.57;;
65896;SDS011;52677;50.898;10.854;2024-03-02T05:16:32;24.85;;;12.98;;
65896;SDS011;52677;50.898;10.854;2024-03-02T05:18:34;26.45;;;13.60;;
65896;SDS011;52677;50.898;10.854;2024-03-02T05:20:34;29.20;;;14.18;;
65896;SDS011;52677;50.898;10.854;2024-03-02T05:22:35;25.00;;;14.27;;
65896;SDS011;52677;50.898;10.854;2024-03-02T05:24:36;27.00;;;14.35;;
65896;SDS011;52677;50.898;10.854;2024-03-02T05:26:36;28.45;;;14.55;;
65896;SDS011;52677;50.898;10.854;2024-03-02T05:28:37;27.05;;;14.35;;
65896;SDS011;52677;50.898;10.854;2024-03-02T05:30:37;33.65;;;15.85;;
65896;SDS011;52677;50.898;10.854;2024-03-02T05:32:37;30.40;;;15.00;;
65896;SDS011;52677;50.898;10.854;2024-03-02T05:34:38;36.25;;;15.65;;
65896;SDS011;52677;50.898;10.854;2024-03-02T05:36:38;29.38;;;15.63;;
65896;SDS011;52677;50.898;10.854;2024-03-02T05:38:39;33.15;;;16.55;;
65896;SDS011;52677;50.898;10.854;2024-03-02T05:40:39;32.97;;;17.63;;
65896;SDS011;52677;50.898;10.854;2024-03-02T05:42:39;36.33;;;17.58;;
65896;SDS011;52677;50.898;10.854;2024-03-02T05:44:41;34.83;;;18.50;;
65896;SDS011;52677;50.898;10.854;2024-03-02T05:46:41;30.98;;;17.08;;
65896;SDS011;52677;50.898;10.854;2024-03-02T05:48:42;36.78;;;16.55;;
65896;SDS011;52677;50.898;10.854;2024-03-02T05:50:43;40.00;;;18.38;;
65896;SDS011;52677;50.898;10.854;2024-03-02T05:52:43;54.22;;;22.90;;
65896;SDS011;52677;50.898;10.854;2024-03-02T05:54:43;39.03;;;22.55;;
65896;SDS011;52677;50.898;10.854;2024-03-02T05:56:44;44.70;;;22.33;;
65896;SDS011;52677;50.898;10.854;2024-03-02T05:58:44;38.38;;;19.90;;
65896;SDS011;52677;50.898;10.854;2024-03-02T06:01:03;41.05;;;20.20;;
65896;SDS011;52677;50.898;10.854;2024-03-02T06:03:04;40.13;;;20.50;;
65896;SDS011;52677;50.898;10.854;2024-03-02T06:05:06;38.17;;;22.33;;
65896;SDS011;52677;50.898;10.854;2024-03-02T06:07:07;40.13;;;22.23;;
65896;SDS011;52677;50.898;10.854;2024-03-02T06:09:07;43.53;;;21.52;;
65896;SDS011;52677;50.898;10.854;2024-03-02T06:11:08;43.45;;;22.02;;
65896;SDS011;52677;50.898;10.854;2024-03-02T06:13:08;36.63;;;19.35;;
65896;SDS011;52677;50.898;10.854;2024-03-02T06:15:09;36.03;;;19.40;;
65896;SDS011;52677;50.898;10.854;2024-03-02T06:17:10;38.08;;;20.77;;
65896;SDS011;52677;50.898;10.854;2024-03-02T06:19:10;36.90;;;19.88;;
65896;SDS011;52677;50.898;10.854;2024-03-02T06:21:10;37.40;;;21.23;;
65896;SDS011;52677;50.898;10.854;2024-03-02T06:23:10;42.63;;;21.38;;
65896;SDS011;52677;50.898;10.854;2024-03-02T06:25:11;42.92;;;21.27;;
65896;SDS011;52677;50.898;10.854;2024-03-02T06:27:11;39.15;;;20.65;;
65896;SDS011;52677;50.898;10.854;2024-03-02T06:29:12;38.03;;;19.50;;
65896;SDS011;52677;50.898;10.854;2024-03-02T06:31:12;38.42;;;18.88;;
65896;SDS011;52677;50.898;10.854;2024-03-02T06:33:12;34.80;;;17.45;;
65896;SDS011;52677;50.898;10.854;2024-03-02T06:35:13;35.85;;;19.55;;
65896;SDS011;52677;50.898;10.854;2024-03-02T06:37:13;42.03;;;19.25;;
65896;SDS011;52677;50.898;10.854;2024-03-02T06:39:15;34.85;;;20.13;;
65896;SDS011;52677;50.898;10.854;2024-03-02T06:41:16;37.47;;;18.65;;
65896;SDS011;52677;50.898;10.854;2024-03-02T06:43:16;37.45;;;17.73;;
65896;SDS011;52677;50.898;10.854;2024-03-02T06:45:17;37.17;;;18.83;;
65896;SDS011;52677;50.898;10.854;2024-03-02T06:47:17;37.85;;;18.13;;
65896;SDS011;52677;50.898;10.854;2024-03-02T06:49:17;37.53;;;20.30;;
65896;SDS011;52677;50.898;10.854;2024-03-02T06:51:18;37.15;;;19.27;;
65896;SDS011;52677;50.898;10.854;2024-03-02T06:53:18;39.60;;;19.70;;
65896;SDS011;52677;50.898;10.854;2024-03-02T06:55:19;41.05;;;19.70;;
65896;SDS011;52677;50.898;10.854;2024-03-02T06:57:19;44.50;;;19.23;;
65896;SDS011;52677;50.898;10.854;2024-03-02T06:59:20;34.97;;;17.23;;
65896;SDS011;52677;50.898;10.854;2024-03-02T07:01:21;31.92;;;16.25;;
65896;SDS011;52677;50.898;10.854;2024-03-02T07:03:21;40.90;;;17.73;;
65896;SDS011;52677;50.898;10.854;2024-03-02T07:05:22;37.22;;;19.10;;
65896;SDS011;52677;50.898;10.854;2024-03-02T07:07:22;34.65;;;17.83;;
65896;SDS011;52677;50.898;10.854;2024-03-02T07:09:22;36.45;;;18.17;;
65896;SDS011;52677;50.898;10.854;2024-03-02T07:11:23;30.55;;;17.80;;
65896;SDS011;52677;50.898;10.854;2024-03-02T07:13:23;31.63;;;16.02;;
65896;SDS011;52677;50.898;10.854;2024-03-02T07:15:23;35.17;;;16.52;;
65896;SDS011;52677;50.898;10.854;2024-03-02T07:17:26;36.78;;;16.83;;
65896;SDS011;52677;50.898;10.854;2024-03-02T07:19:27;34.08;;;16.17;;
65896;SDS011;52677;50.898;10.854;2024-03-02T07:21:27;32.60;;;17.20;;
65896;SDS011;52677;50.898;10.854;2024-03-02T07:23:28;30.17;;;16.80;;
65896;SDS011;52677;50.898;10.854;2024-03-02T07:25:28;28.88;;;15.00;;
65896;SDS011;52677;50.898;10.854;2024-03-02T07:27:31;32.83;;;15.65;;
65896;SDS011;52677;50.898;10.854;2024-03-02T07:29:32;31.38;;;15.38;;
65896;SDS011;52677;50.898;10.854;2024-03-02T07:31:32;31.10;;;14.80;;
65896;SDS011;52677;50.898;10.854;2024-03-02T07:33:33;32.67;;;14.20;;
65896;SDS011;52677;50.898;10.854;2024-03-02T07:35:33;28.98;;;15.38;;
65896;SDS011;52677;50.898;10.854;2024-03-02T07:37:33;29.38;;;13.90;;
65896;SDS011;52677;50.898;10.854;2024-03-02T07:39:34;28.35;;;13.82;;
65896;SDS011;52677;50.898;10.854;2024-03-02T07:41:34;26.02;;;12.75;;
65896;SDS011;52677;50.898;10.854;2024-03-02T07:43:35;26.92;;;13.20;;
65896;SDS011;52677;50.898;10.854;2024-03-02T07:45:35;24.90;;;12.35;;
65896;SDS011;52677;50.898;10.854;2024-03-02T07:47:36;24.15;;;13.80;;
65896;SDS011;52677;50.898;10.854;2024-03-02T07:49:37;23.27;;;12.93;;
65896;SDS011;52677;50.898;10.854;2024-03-02T07:51:37;25.38;;;12.75;;
65896;SDS011;52677;50.898;10.854;2024-03-02T07:53:38;28.33;;;14.38;;
65896;SDS011;52677;50.898;10.854;2024-03-02T07:55:38;24.08;;;13.85;;
65896;SDS011;52677;50.898;10.854;2024-03-02T07:57:39;28.00;;;12.82;;
65896;SDS011;52677;50.898;10.854;2024-03-02T07:59:40;30.05;;;13.68;;
65896;SDS011;52677;50.898;10.854;2024-03-02T08:01:40;24.73;;;12.57;;
65896;SDS011;52677;50.898;10.854;2024-03-02T08:03:41;25.23;;;12.82;;
65896;SDS011;52677;50.898;10.854;2024-03-02T08:05:42;26.80;;;13.07;;
65896;SDS011;52677;50.898;10.854;2024-03-02T08:07:44;20.10;;;11.30;;
65896;SDS011;52677;50.898;10.854;2024-03-02T08:09:45;24.10;;;12.52;;
65896;SDS011;52677;50.898;10.854;2024-03-02T08:11:46;20.02;;;11.43;;
65896;SDS011;52677;50.898;10.854;2024-03-02T08:13:46;22.02;;;12.13;;
65896;SDS011;52677;50.898;10.854;2024-03-02T08:15:47;18.83;;;10.48;;
65896;SDS011;52677;50.898;10.854;2024-03-02T08:17:47;21.63;;;11.63;;
65896;SDS011;52677;50.898;10.854;2024-03-02T08:19:50;20.17;;;11.20;;
65896;SDS011;52677;50.898;10.854;2024-03-02T08:21:51;17.52;;;10.45;;
65896;SDS011;52677;50.898;10.854;2024-03-02T08:23:51;18.50;;;10.63;;
65896;SDS011;52677;50.898;10.854;2024-03-02T08:25:52;19.55;;;10.18;;
65896;SDS011;52677;50.898;10.854;2024-03-02T08:27:52;16.83;;;9.43;;
65896;SDS011;52677;50.898;10.854;2024-03-02T08:29:53;18.27;;;10.20;;
65896;SDS011;52677;50.898;10.854;2024-03-02T08:31:53;16.67;;;9.30;;
65896;SDS011;52677;50.898;10.854;2024-03-02T08:33:54;14.98;;;9.68;;
65896;SDS011;52677;50.898;10.854;2024-03-02T08:35:54;17.15;;;10.70;;
65896;SDS011;52677;50.898;10.854;2024-03-02T08:37:55;16.95;;;9.35;;
65896;SDS011;52677;50.898;10.854;2024-03-02T08:39:56;15.65;;;8.95;;
65896;SDS011;52677;50.898;10.854;2024-03-02T08:41:56;14.95;;;8.55;;
65896;SDS011;52677;50.898;10.854;2024-03-02T08:43:56;13.20;;;8.10;;
65896;SDS011;52677;50.898;10.854;2024-03-02T08:45:57;15.45;;;8.50;;
65896;SDS011;52677;50.898;10.854;2024-03-02T08:47:57;13.45;;;8.63;;
65896;SDS011;52677;50.898;10.854;2024-03-02T08:49:57;17.63;;;8.68;;
65896;SDS011;52677;50.898;10.854;2024-03-02T08:51:58;14.52;;;8.73;;
65896;SDS011;52677;50.898;10.854;2024-03-02T08:53:58;14.05;;;8.48;;
65896;SDS011;52677;50.898;10.854;2024-03-02T08:55:59;14.05;;;7.85;;
65896;SDS011;52677;50.898;10.854;2024-03-02T08:58:00;13.38;;;7.85;;
65896;SDS011;52677;50.898;10.854;2024-03-02T09:00:00;12.02;;;7.38;;
65896;SDS011;52677;50.898;10.854;2024-03-02T09:02:01;13.65;;;7.97;;
65896;SDS011;52677;50.898;10.854;2024-03-02T09:04:01;17.70;;;8.80;;
65896;SDS011;52677;50.898;10.854;2024-03-02T09:06:01;12.88;;;7.93;;
65896;SDS011;52677;50.898;10.854;2024-03-02T09:08:02;14.48;;;8.75;;
65896;SDS011;52677;50.898;10.854;2024-03-02T09:10:04;14.32;;;8.82;;
65896;SDS011;52677;50.898;10.854;2024-03-02T09:12:06;16.58;;;9.07;;
65896;SDS011;52677;50.898;10.854;2024-03-02T09:14:07;17.45;;;9.82;;
65896;SDS011;52677;50.898;10.854;2024-03-02T09:16:07;19.05;;;9.60;;
65896;SDS011;52677;50.898;10.854;2024-03-02T09:18:10;16.75;;;9.32;;
65896;SDS011;52677;50.898;10.854;2024-03-02T09:20:11;18.27;;;9.43;;
65896;SDS011;52677;50.898;10.854;2024-03-02T09:22:11;18.15;;;9.43;;
65896;SDS011;52677;50.898;10.854;2024-03-02T09:24:12;15.73;;;9.35;;
65896;SDS011;52677;50.898;10.854;2024-03-02T09:26:12;16.92;;;10.35;;
65896;SDS011;52677;50.898;10.854;2024-03-02T09:28:13;15.05;;;9.10;;
65896;SDS011;52677;50.898;10.854;2024-03-02T09:30:15;15.23;;;9.82;;
65896;SDS011;52677;50.898;10.854;2024-03-02T09:32:15;17.05;;;9.38;;
65896;SDS011;52677;50.898;10.854;2024-03-02T09:34:16;15.75;;;9.10;;
65896;SDS011;52677;50.898;10.854;2024-03-02T09:36:17;13.77;;;9.30;;
65896;SDS011;52677;50.898;10.854;2024-03-02T09:38:22;14.00;;;8.25;;
65896;SDS011;52677;50.898;10.854;2024-03-02T09:40:22;12.15;;;7.82;;
65896;SDS011;52677;50.898;10.854;2024-03-02T09:42:22;14.70;;;8.27;;
65896;SDS011;52677;50.898;10.854;2024-03-02T09:44:24;13.63;;;8.25;;
65896;SDS011;52677;50.898;10.854;2024-03-02T09:46:25;17.05;;;9.50;;
65896;SDS011;52677;50.898;10.854;2024-03-02T09:48:25;14.85;;;8.10;;
65896;SDS011;52677;50.898;10.854;2024-03-02T09:50:26;14.77;;;8.52;;
65896;SDS011;52677;50.898;10.854;2024-03-02T09:52:26;13.38;;;7.85;;
65896;SDS011;52677;50.898;10.854;2024-03-02T09:54:27;14.68;;;7.75;;
65896;SDS011;52677;50.898;10.854;2024-03-02T09:56:28;12.05;;;8.10;;
65896;SDS011;52677;50.898;10.854;2024-03-02T09:58:29;11.77;;;7.85;;
65896;SDS011;52677;50.898;10.854;2024-03-02T10:00:29;10.93;;;6.90;;
65896;SDS011;52677;50.898;10.854;2024-03-02T10:02:29;12.30;;;7.40;;
65896;SDS011;52677;50.898;10.854;2024-03-02T10:04:30;10.38;;;6.50;;
65896;SDS011;52677;50.898;10.854;2024-03-02T10:06:35;11.63;;;7.03;;
65896;SDS011;52677;50.898;10.854;2024-03-02T10:08:45;11.98;;;6.90;;
65896;SDS011;52677;50.898;10.854;2024-03-02T10:10:45;13.38;;;6.85;;
65896;SDS011;52677;50.898;10.854;2024-03-02T10:12:45;11.02;;;6.72;;
65896;SDS011;52677;50.898;10.854;2024-03-02T10:14:46;9.77;;;6.68;;
65896;SDS011;52677;50.898;10.854;2024-03-02T10:16:48;10.27;;;6.75;;
65896;SDS011;52677;50.898;10.854;2024-03-02T10:18:49;10.88;;;6.28;;
65896;SDS011;52677;50.898;10.854;2024-03-02T10:20:49;11.18;;;7.10;;
65896;SDS011;52677;50.898;10.854;2024-03-02T10:22:49;10.23;;;6.00;;
65896;SDS011;52677;50.898;10.854;2024-03-02T10:24:50;10.57;;;6.13;;
65896;SDS011;52677;50.898;10.854;2024-03-02T10:26:51;9.82;;;5.95;;
65896;SDS011;52677;50.898;10.854;2024-03-02T10:28:52;9.95;;;5.65;;
65896;SDS011;52677;50.898;10.854;2024-03-02T10:30:59;10.23;;;5.32;;
65896;SDS011;52677;50.898;10.854;2024-03-02T10:33:00;9.30;;;5.78;;
65896;SDS011;52677;50.898;10.854;2024-03-02T10:35:01;8.73;;;5.88;;
65896;SDS011;52677;50.898;10.854;2024-03-02T10:37:03;8.90;;;5.80;;
65896;SDS011;52677;50.898;10.854;2024-03-02T10:39:05;8.82;;;5.65;;
65896;SDS011;52677;50.898;10.854;2024-03-02T10:41:07;9.48;;;5.38;;
65896;SDS011;52677;50.898;10.854;2024-03-02T10:43:07;7.88;;;5.82;;
65896;SDS011;52677;50.898;10.854;2024-03-02T10:45:09;7.25;;;5.00;;
65896;SDS011;52677;50.898;10.854;2024-03-02T10:47:12;7.88;;;4.68;;
65896;SDS011;52677;50.898;10.854;2024-03-02T10:49:14;7.93;;;5.03;;
65896;SDS011;52677;50.898;10.854;2024-03-02T10:51:14;7.63;;;5.10;;
65896;SDS011;52677;50.898;10.854;2024-03-02T10:53:15;8.70;;;5.00;;
65896;SDS011;52677;50.898;10.854;2024-03-02T10:55:16;6.93;;;4.40;;
65896;SDS011;52677;50.898;10.854;2024-03-02T10:57:16;12.73;;;5.85;;
65896;SDS011;52677;50.898;10.854;2024-03-02T10:59:26;6.00;;;4.05;;
65896;SDS011;52677;50.898;10.854;2024-03-02T11:01:31;6.28;;;4.03;;
65896;SDS011;52677;50.898;10.854;2024-03-02T11:03:36;6.30;;;3.88;;
65896;SDS011;52677;50.898;10.854;2024-03-02T11:05:39;5.68;;;3.42;;
65896;SDS011;52677;50.898;10.854;2024-03-02T11:07:43;6.75;;;3.83;;
65896;SDS011;52677;50.898;10.854;2024-03-02T11:10:02;5.50;;;3.45;;
65896;SDS011;52677;50.898;10.854;2024-03-02T11:12:27;4.72;;;3.28;;
65896;SDS011;52677;50.898;10.854;2024-03-02T11:14:30;4.75;;;3.25;;
65896;SDS011;52677;50.898;10.854;2024-03-02T11:16:35;5.88;;;3.70;;
65896;SDS011;52677;50.898;10.854;2024-03-02T11:18:37;5.78;;;3.55;;
65896;SDS011;52677;50.898;10.854;2024-03-02T11:20:38;6.60;;;3.80;;
65896;SDS011;52677;50.898;10.854;2024-03-02T11:22:39;5.90;;;3.13;;
65896;SDS011;52677;50.898;10.854;2024-03-02T11:24:47;4.10;;;3.22;;
65896;SDS011;52677;50.898;10.854;2024-03-02T11:26:51;7.20;;;4.07;;
65896;SDS011;52677;50.898;10.854;2024-03-02T11:28:52;5.07;;;3.35;;
65896;SDS011;52677;50.898;10.854;2024-03-02T11:30:52;3.65;;;2.53;;
65896;SDS011;52677;50.898;10.854;2024-03-02T11:32:56;4.72;;;2.78;;
65896;SDS011;52677;50.898;10.854;2024-03-02T11:34:56;4.65;;;2.45;;
65896;SDS011;52677;50.898;10.854;2024-03-02T11:36:57;4.70;;;2.65;;
65896;SDS011;52677;50.898;10.854;2024-03-02T11:38:59;2.85;;;1.52;;
65896;SDS011;52677;50.898;10.854;2024-03-02T11:41:02;2.22;;;1.40;;
65896;SDS011;52677;50.898;10.854;2024-03-02T11:43:07;2.20;;;1.77;;